SXS22AB LTAI-EDDL
Flight info
| Callsign | SXS22AB |
|---|---|
| Flight time | N/A |
| Altitude | 34000 |
| Route | EKNUD UQ26 DIGBO UL615 VADEN DCT UTEKA DCT BABIT DCT SASAL DCT LAMSI DCT TESDU DCT AMETU T852 TINSA T854 DOMUX DOMUX1A |
| Aircraft | B738/M-SDE2E3FGHIRWXY/LB1 |
Departure
| Time | N/A |
|---|---|
| Airport | Antalya International Airport (LTAI) |
Arrival
| Time | 2026-05-05 20:51 |
|---|---|
| Airport | Düsseldorf Airport (EDDL) |
| Time | Latitude | Longitude | Altitude | Speed | Heading |
|---|---|---|---|---|---|
| 2026-05-05 20:08 | 49.70429 | 11.46878 | 35844 ft | 464 kts | 303° |
| 2026-05-05 20:09 | 49.73579 | 11.40275 | 35850 ft | 464 kts | 303° |
| 2026-05-05 20:09 | 49.77410 | 11.32224 | 35852 ft | 464 kts | 303° |
| 2026-05-05 20:10 | 49.81232 | 11.24168 | 35854 ft | 464 kts | 303° |
| 2026-05-05 20:10 | 49.85054 | 11.16087 | 35847 ft | 465 kts | 303° |
| 2026-05-05 20:11 | 49.88876 | 11.07981 | 35852 ft | 465 kts | 303° |
| 2026-05-05 20:11 | 49.92689 | 10.99871 | 35852 ft | 465 kts | 303° |
| 2026-05-05 20:12 | 49.96499 | 10.91740 | 35845 ft | 466 kts | 303° |
| 2026-05-05 20:12 | 50.00307 | 10.83590 | 35847 ft | 466 kts | 303° |
| 2026-05-05 20:13 | 50.04089 | 10.75468 | 35843 ft | 466 kts | 303° |
| 2026-05-05 20:13 | 50.07891 | 10.67279 | 35833 ft | 467 kts | 303° |
| 2026-05-05 20:14 | 50.11694 | 10.59064 | 35852 ft | 467 kts | 303° |
| 2026-05-05 20:14 | 50.15489 | 10.50839 | 35836 ft | 468 kts | 303° |
| 2026-05-05 20:15 | 50.19287 | 10.42584 | 35840 ft | 468 kts | 303° |
| 2026-05-05 20:15 | 50.23068 | 10.34285 | 35847 ft | 469 kts | 302° |
| 2026-05-05 20:16 | 50.26804 | 10.25928 | 35845 ft | 469 kts | 302° |
| 2026-05-05 20:16 | 50.30533 | 10.17549 | 35842 ft | 470 kts | 302° |
| 2026-05-05 20:17 | 50.34246 | 10.09194 | 35846 ft | 470 kts | 302° |
| 2026-05-05 20:17 | 50.37980 | 10.00777 | 35847 ft | 471 kts | 302° |
| 2026-05-05 20:18 | 50.41711 | 9.92342 | 35848 ft | 471 kts | 302° |
| 2026-05-05 20:18 | 50.45437 | 9.83888 | 35848 ft | 471 kts | 302° |
| 2026-05-05 20:19 | 50.49162 | 9.75411 | 35849 ft | 472 kts | 302° |
| 2026-05-05 20:19 | 50.52884 | 9.66912 | 35849 ft | 472 kts | 302° |
| 2026-05-05 20:20 | 50.56600 | 9.58399 | 35846 ft | 472 kts | 302° |
| 2026-05-05 20:20 | 50.60297 | 9.49901 | 35849 ft | 472 kts | 302° |
| 2026-05-05 20:21 | 50.63982 | 9.41405 | 35834 ft | 472 kts | 301° |
| 2026-05-05 20:21 | 50.67681 | 9.32848 | 35840 ft | 472 kts | 301° |
| 2026-05-05 20:22 | 50.71376 | 9.24273 | 35837 ft | 472 kts | 301° |
| 2026-05-05 20:22 | 50.75063 | 9.15687 | 35835 ft | 472 kts | 301° |
| 2026-05-05 20:23 | 50.78741 | 9.07094 | 35835 ft | 472 kts | 301° |
| 2026-05-05 20:23 | 50.82419 | 8.98476 | 35597 ft | 476 kts | 301° |
| 2026-05-05 20:23 | 50.84341 | 8.94141 | 34907 ft | 481 kts | 304° |
| 2026-05-05 20:24 | 50.86365 | 8.90005 | 34242 ft | 482 kts | 306° |
| 2026-05-05 20:24 | 50.88483 | 8.85864 | 33482 ft | 485 kts | 307° |
| 2026-05-05 20:24 | 50.90619 | 8.81720 | 32697 ft | 486 kts | 307° |
| 2026-05-05 20:24 | 50.92746 | 8.77549 | 31953 ft | 486 kts | 307° |
| 2026-05-05 20:25 | 50.94862 | 8.73347 | 31193 ft | 487 kts | 307° |
| 2026-05-05 20:25 | 50.96969 | 8.69127 | 30430 ft | 487 kts | 307° |
| 2026-05-05 20:25 | 50.99068 | 8.64906 | 29748 ft | 486 kts | 308° |
| 2026-05-05 20:25 | 51.01247 | 8.60844 | 29118 ft | 481 kts | 314° |
| 2026-05-05 20:26 | 51.03720 | 8.57321 | 28408 ft | 477 kts | 323° |
| 2026-05-05 20:26 | 51.06465 | 8.54395 | 27782 ft | 471 kts | 327° |
| 2026-05-05 20:26 | 51.09203 | 8.51630 | 27190 ft | 462 kts | 327° |
| 2026-05-05 20:26 | 51.11888 | 8.48924 | 26647 ft | 452 kts | 327° |
| 2026-05-05 20:27 | 51.14510 | 8.46253 | 26163 ft | 442 kts | 327° |
| 2026-05-05 20:27 | 51.17072 | 8.43611 | 25597 ft | 435 kts | 326° |
| 2026-05-05 20:27 | 51.19550 | 8.41028 | 25071 ft | 428 kts | 326° |
| 2026-05-05 20:27 | 51.22026 | 8.38435 | 24552 ft | 422 kts | 326° |
| 2026-05-05 20:28 | 51.24470 | 8.35873 | 24027 ft | 418 kts | 326° |
| 2026-05-05 20:28 | 51.26885 | 8.33341 | 23535 ft | 413 kts | 326° |
| 2026-05-05 20:28 | 51.29299 | 8.30807 | 22963 ft | 418 kts | 326° |
| 2026-05-05 20:28 | 51.31765 | 8.28214 | 22407 ft | 427 kts | 326° |
| 2026-05-05 20:29 | 51.34238 | 8.25612 | 21837 ft | 422 kts | 326° |
| 2026-05-05 20:29 | 51.36668 | 8.23059 | 21428 ft | 410 kts | 326° |
| 2026-05-05 20:29 | 51.39024 | 8.20596 | 20976 ft | 401 kts | 326° |
| 2026-05-05 20:29 | 51.41343 | 8.18172 | 20499 ft | 394 kts | 326° |
| 2026-05-05 20:30 | 51.43635 | 8.15758 | 20000 ft | 391 kts | 326° |
| 2026-05-05 20:30 | 51.45859 | 8.13400 | 19523 ft | 385 kts | 326° |
| 2026-05-05 20:30 | 51.48013 | 8.10851 | 19043 ft | 387 kts | 314° |
| 2026-05-05 20:30 | 51.49579 | 8.07299 | 18566 ft | 395 kts | 292° |
| 2026-05-05 20:31 | 51.50295 | 8.03051 | 18009 ft | 396 kts | 273° |
| 2026-05-05 20:31 | 51.50098 | 7.98703 | 17425 ft | 389 kts | 255° |
| 2026-05-05 20:31 | 51.49369 | 7.94568 | 16935 ft | 383 kts | 252° |
| 2026-05-05 20:31 | 51.48613 | 7.90494 | 16410 ft | 379 kts | 252° |
| 2026-05-05 20:32 | 51.47873 | 7.86454 | 15901 ft | 376 kts | 252° |
| 2026-05-05 20:32 | 51.47149 | 7.82446 | 15408 ft | 372 kts | 252° |
| 2026-05-05 20:32 | 51.46437 | 7.78468 | 14908 ft | 369 kts | 252° |
| 2026-05-05 20:32 | 51.45731 | 7.74516 | 14425 ft | 366 kts | 252° |
| 2026-05-05 20:33 | 51.45033 | 7.70605 | 13948 ft | 364 kts | 253° |
| 2026-05-05 20:33 | 51.44339 | 7.66712 | 13445 ft | 361 kts | 253° |
| 2026-05-05 20:33 | 51.43660 | 7.62896 | 12919 ft | 359 kts | 253° |
| 2026-05-05 20:33 | 51.42963 | 7.59070 | 12424 ft | 356 kts | 249° |
| 2026-05-05 20:34 | 51.41950 | 7.55476 | 11940 ft | 353 kts | 242° |
| 2026-05-05 20:34 | 51.40802 | 7.52023 | 11497 ft | 349 kts | 241° |
| 2026-05-05 20:34 | 51.39623 | 7.48632 | 11015 ft | 348 kts | 238° |
| 2026-05-05 20:34 | 51.38291 | 7.45424 | 10654 ft | 342 kts | 234° |
| 2026-05-05 20:35 | 51.36924 | 7.42389 | 10517 ft | 331 kts | 233° |
| 2026-05-05 20:35 | 51.35587 | 7.39463 | 10377 ft | 320 kts | 233° |
| 2026-05-05 20:35 | 51.34287 | 7.36634 | 10251 ft | 310 kts | 233° |
| 2026-05-05 20:35 | 51.33062 | 7.33847 | 10136 ft | 301 kts | 236° |
| 2026-05-05 20:36 | 51.31912 | 7.31111 | 10021 ft | 292 kts | 236° |
| 2026-05-05 20:36 | 51.30799 | 7.28449 | 9916 ft | 283 kts | 236° |
| 2026-05-05 20:36 | 51.29730 | 7.25860 | 9802 ft | 275 kts | 236° |
| 2026-05-05 20:36 | 51.28549 | 7.23479 | 9583 ft | 271 kts | 228° |
| 2026-05-05 20:37 | 51.27386 | 7.21220 | 9369 ft | 262 kts | 231° |
| 2026-05-05 20:37 | 51.26631 | 7.19679 | 9250 ft | 259 kts | 232° |
| 2026-05-05 20:37 | 51.25162 | 7.16657 | 8988 ft | 262 kts | 232° |
| 2026-05-05 20:37 | 51.24040 | 7.14325 | 8795 ft | 269 kts | 234° |
| 2026-05-05 20:38 | 51.22975 | 7.11824 | 8669 ft | 273 kts | 237° |
| 2026-05-05 20:38 | 51.21934 | 7.09278 | 8517 ft | 274 kts | 237° |
| 2026-05-05 20:38 | 51.20906 | 7.06750 | 8338 ft | 268 kts | 237° |
| 2026-05-05 20:38 | 51.19903 | 7.04279 | 8156 ft | 263 kts | 237° |
| 2026-05-05 20:39 | 51.18923 | 7.01861 | 8053 ft | 255 kts | 237° |
| 2026-05-05 20:39 | 51.17967 | 6.99514 | 7894 ft | 251 kts | 237° |
| 2026-05-05 20:39 | 51.17023 | 6.97200 | 7801 ft | 252 kts | 237° |
| 2026-05-05 20:39 | 51.16062 | 6.94841 | 7731 ft | 258 kts | 237° |
| 2026-05-05 20:40 | 51.15060 | 6.92381 | 7644 ft | 268 kts | 237° |
| 2026-05-05 20:40 | 51.14044 | 6.89892 | 7595 ft | 264 kts | 237° |
| 2026-05-05 20:40 | 51.13063 | 6.87489 | 7527 ft | 256 kts | 237° |
| 2026-05-05 20:40 | 51.12078 | 6.85081 | 7264 ft | 263 kts | 237° |
| 2026-05-05 20:41 | 51.11072 | 6.82622 | 7035 ft | 265 kts | 237° |
| 2026-05-05 20:41 | 51.10070 | 6.80170 | 6758 ft | 263 kts | 237° |
| 2026-05-05 20:41 | 51.09075 | 6.77735 | 6467 ft | 261 kts | 237° |
| 2026-05-05 20:41 | 51.08107 | 6.75365 | 6113 ft | 258 kts | 237° |
| 2026-05-05 20:42 | 51.07123 | 6.72955 | 5759 ft | 260 kts | 237° |
| 2026-05-05 20:42 | 51.06135 | 6.70532 | 5426 ft | 261 kts | 237° |
| 2026-05-05 20:42 | 51.05149 | 6.68111 | 5153 ft | 260 kts | 237° |
| 2026-05-05 20:42 | 51.04170 | 6.65704 | 4879 ft | 259 kts | 237° |
| 2026-05-05 20:43 | 51.03196 | 6.63305 | 4588 ft | 258 kts | 237° |
| 2026-05-05 20:43 | 51.02326 | 6.60835 | 4316 ft | 256 kts | 250° |
| 2026-05-05 20:43 | 51.02055 | 6.58066 | 4055 ft | 253 kts | 274° |
| 2026-05-05 20:43 | 51.02487 | 6.55422 | 3862 ft | 245 kts | 298° |
| 2026-05-05 20:44 | 51.03517 | 6.53347 | 3644 ft | 236 kts | 323° |
| 2026-05-05 20:44 | 51.04840 | 6.51944 | 3448 ft | 227 kts | 330° |
| 2026-05-05 20:44 | 51.06180 | 6.50655 | 3224 ft | 222 kts | 330° |
| 2026-05-05 20:44 | 51.07472 | 6.49417 | 3076 ft | 210 kts | 330° |
| 2026-05-05 20:45 | 51.09876 | 6.49148 | 3015 ft | 170 kts | 34° |
| 2026-05-05 20:45 | 51.10897 | 6.50107 | 3007 ft | 171 kts | 30° |
| 2026-05-05 20:45 | 51.11941 | 6.51002 | 2996 ft | 170 kts | 28° |
| 2026-05-05 20:46 | 51.12997 | 6.51875 | 2995 ft | 172 kts | 29° |
| 2026-05-05 20:46 | 51.14044 | 6.52724 | 3018 ft | 162 kts | 28° |
| 2026-05-05 20:46 | 51.14696 | 6.53246 | 2981 ft | 158 kts | 28° |
| 2026-05-05 20:46 | 51.15709 | 6.54053 | 3026 ft | 169 kts | 28° |
| 2026-05-05 20:47 | 51.16790 | 6.54910 | 3012 ft | 173 kts | 28° |
| 2026-05-05 20:47 | 51.17863 | 6.55758 | 2993 ft | 170 kts | 28° |
| 2026-05-05 20:47 | 51.18855 | 6.56700 | 2975 ft | 164 kts | 46° |
| 2026-05-05 20:47 | 51.19625 | 6.58058 | 2843 ft | 170 kts | 48° |
| 2026-05-05 20:48 | 51.20404 | 6.59425 | 2666 ft | 162 kts | 50° |
| 2026-05-05 20:48 | 51.21102 | 6.60808 | 2425 ft | 157 kts | 53° |
| 2026-05-05 20:48 | 51.21756 | 6.62165 | 2213 ft | 152 kts | 52° |
| 2026-05-05 20:48 | 51.22390 | 6.63493 | 2019 ft | 149 kts | 52° |
| 2026-05-05 20:49 | 51.23014 | 6.64805 | 1820 ft | 151 kts | 52° |
| 2026-05-05 20:49 | 51.23642 | 6.66126 | 1605 ft | 146 kts | 51° |
| 2026-05-05 20:49 | 51.24231 | 6.67365 | 1454 ft | 138 kts | 51° |
| 2026-05-05 20:49 | 51.24804 | 6.68567 | 1249 ft | 134 kts | 51° |
| 2026-05-05 20:50 | 51.25374 | 6.69764 | 1060 ft | 138 kts | 50° |
| 2026-05-05 20:50 | 51.25958 | 6.70996 | 876 ft | 139 kts | 50° |
| 2026-05-05 20:50 | 51.26550 | 6.72237 | 697 ft | 144 kts | 50° |
| 2026-05-05 20:50 | 51.27153 | 6.73503 | 504 ft | 142 kts | 50° |
| 2026-05-05 20:51 | 51.27742 | 6.74764 | 306 ft | 142 kts | 49° |
| 2026-05-05 20:51 | 51.28342 | 6.75996 | 141 ft | 131 kts | 49° |
| 2026-05-05 20:51 | 51.28824 | 6.77005 | 125 ft | 94 kts | 52° |
| 2026-05-05 20:51 | 51.29078 | 6.77543 | 125 ft | 40 kts | 52° |
| 2026-05-05 20:52 | 51.29227 | 6.77854 | 133 ft | 31 kts | 52° |
| 2026-05-05 20:52 | 51.29292 | 6.78115 | 138 ft | 24 kts | 104° |
| 2026-05-05 20:52 | 51.29164 | 6.78178 | 134 ft | 23 kts | 219° |
| 2026-05-05 20:52 | 51.29065 | 6.77988 | 129 ft | 22 kts | 231° |
| 2026-05-05 20:53 | 51.28973 | 6.77796 | 127 ft | 21 kts | 234° |
| 2026-05-05 20:53 | 51.28886 | 6.77609 | 128 ft | 21 kts | 233° |
| 2026-05-05 20:53 | 51.28800 | 6.77427 | 126 ft | 20 kts | 232° |
| 2026-05-05 20:53 | 51.28716 | 6.77253 | 126 ft | 20 kts | 233° |
| 2026-05-05 20:54 | 51.28635 | 6.77083 | 127 ft | 19 kts | 232° |
| 2026-05-05 20:54 | 51.28556 | 6.76920 | 125 ft | 18 kts | 232° |
| 2026-05-05 20:54 | 51.28481 | 6.76760 | 121 ft | 18 kts | 232° |
| 2026-05-05 20:54 | 51.28384 | 6.76713 | 122 ft | 17 kts | 144° |
| 2026-05-05 20:55 | 51.28293 | 6.76828 | 125 ft | 16 kts | 141° |
| 2026-05-05 20:55 | 51.28219 | 6.76846 | 128 ft | 5 kts | 221° |
| 2026-05-05 20:55 | 51.28212 | 6.76795 | 126 ft | 5 kts | 265° |
| 2026-05-05 20:55 | 51.28206 | 6.76746 | 127 ft | 3 kts | 270° |
| 2026-05-05 20:56 | 51.28206 | 6.76744 | 127 ft | 0 kts | 277° |